createdAt,value
2022-10-08T00:00:46.670Z,3.60
2022-10-08T00:03:15.562Z,4.03
2022-10-08T00:05:42.554Z,4.60
2022-10-08T00:08:09.649Z,4.23
2022-10-08T00:10:36.983Z,4.40
2022-10-08T00:13:04.069Z,3.70
2022-10-08T00:15:30.885Z,5.30
2022-10-08T00:17:57.401Z,3.40
2022-10-08T00:20:24.054Z,3.80
2022-10-08T00:22:50.669Z,3.90
2022-10-08T00:25:17.248Z,4.30
2022-10-08T00:27:43.861Z,4.57
2022-10-08T00:30:10.872Z,4.00
2022-10-08T00:32:37.437Z,4.43
2022-10-08T00:35:04.481Z,4.60
2022-10-08T00:37:31.048Z,3.70
2022-10-08T00:39:57.524Z,3.40
2022-10-08T00:42:24.904Z,4.70
2022-10-08T00:44:59.347Z,4.30
2022-10-08T00:47:29.182Z,2.90
2022-10-08T00:49:57.603Z,4.53
2022-10-08T00:52:25.972Z,3.60
2022-10-08T00:54:52.636Z,3.27
2022-10-08T00:57:21.198Z,3.20
2022-10-08T00:59:47.787Z,3.47
2022-10-08T01:02:14.641Z,3.50
2022-10-08T01:04:42.717Z,3.73
2022-10-08T01:07:12.303Z,4.53
2022-10-08T01:09:42.065Z,4.93
2022-10-08T01:12:13.831Z,4.13
2022-10-08T01:14:40.405Z,3.60
2022-10-08T01:17:22.260Z,4.40
2022-10-08T01:19:57.938Z,3.40
2022-10-08T01:22:38.784Z,3.97
2022-10-08T01:25:32.756Z,4.67
2022-10-08T01:28:02.911Z,5.50
2022-10-08T01:30:30.837Z,5.33
2022-10-08T01:33:00.312Z,3.93
2022-10-08T01:35:29.873Z,5.10
2022-10-08T01:37:57.991Z,3.23
2022-10-08T01:40:28.788Z,3.20
2022-10-08T01:42:55.955Z,3.80
2022-10-08T01:45:25.138Z,3.50
2022-10-08T01:47:54.308Z,3.50
2022-10-08T01:50:39.773Z,3.80
2022-10-08T01:53:11.577Z,2.67
2022-10-08T01:55:42.525Z,3.00
2022-10-08T01:58:14.499Z,3.70
2022-10-08T02:00:42.353Z,4.30
2022-10-08T02:03:11.440Z,4.37
2022-10-08T02:05:39.988Z,4.40
2022-10-08T02:08:06.506Z,3.40
2022-10-08T02:10:33.081Z,4.00
2022-10-08T02:12:59.613Z,5.00
2022-10-08T02:15:35.425Z,3.10
2022-10-08T02:18:06.766Z,5.20
2022-10-08T02:20:44.490Z,3.27
2022-10-08T02:23:25.752Z,3.90
2022-10-08T02:25:59.565Z,3.83
2022-10-08T02:28:44.877Z,3.43
2022-10-08T02:31:14.387Z,3.30
2022-10-08T02:33:44.652Z,2.90
2022-10-08T02:36:12.362Z,3.53
2022-10-08T02:38:46.731Z,2.60
2022-10-08T02:41:14.469Z,3.00
2022-10-08T02:43:45.342Z,4.33
2022-10-08T02:46:15.118Z,2.67
2022-10-08T02:48:43.725Z,3.47
2022-10-08T02:51:11.810Z,3.70
2022-10-08T02:53:39.422Z,3.17
2022-10-08T02:56:20.154Z,4.40
2022-10-08T02:58:47.542Z,3.20
2022-10-08T03:01:17.191Z,4.13
2022-10-08T03:03:47.249Z,3.73
2022-10-08T03:06:14.811Z,2.97
2022-10-08T03:08:44.327Z,2.90
2022-10-08T03:11:11.615Z,3.30
2022-10-08T03:13:40.491Z,3.77
2022-10-08T03:16:08.830Z,3.40
2022-10-08T03:18:37.688Z,2.83
2022-10-08T03:21:04.813Z,2.40
2022-10-08T03:23:31.539Z,3.47
2022-10-08T03:25:58.160Z,3.43
2022-10-08T03:28:24.689Z,3.43
2022-10-08T03:30:51.293Z,2.90
2022-10-08T03:33:17.849Z,2.70
2022-10-08T03:35:47.841Z,4.70
2022-10-08T03:38:18.001Z,2.83
2022-10-08T03:40:53.765Z,3.07
2022-10-08T03:43:20.427Z,3.63
2022-10-08T03:45:51.490Z,4.33
2022-10-08T03:48:18.585Z,3.00
2022-10-08T03:50:52.751Z,3.90
2022-10-08T03:53:19.414Z,4.33
2022-10-08T03:55:45.957Z,5.40
2022-10-08T03:58:12.662Z,4.00
2022-10-08T04:00:39.278Z,4.70
2022-10-08T04:03:06.074Z,4.97
2022-10-08T04:05:32.660Z,5.10
2022-10-08T04:08:00.452Z,5.40
2022-10-08T04:10:27.229Z,5.70
2022-10-08T04:12:53.803Z,5.70
2022-10-08T04:15:20.362Z,6.63
2022-10-08T04:17:46.943Z,6.07
2022-10-08T04:20:13.513Z,5.90
2022-10-08T04:22:39.951Z,6.97
2022-10-08T04:25:06.601Z,7.50
2022-10-08T04:27:33.081Z,7.20
2022-10-08T04:29:59.762Z,5.83
2022-10-08T04:32:26.322Z,7.33
2022-10-08T04:34:52.845Z,7.90
2022-10-08T04:37:20.237Z,8.37
2022-10-08T04:39:46.917Z,7.27
2022-10-08T04:42:13.559Z,6.67
2022-10-08T04:44:40.107Z,8.43
2022-10-08T04:47:06.607Z,8.10
2022-10-08T04:49:33.185Z,8.70
2022-10-08T04:51:59.662Z,9.07
2022-10-08T04:54:26.229Z,9.80
2022-10-08T04:56:52.779Z,7.67
2022-10-08T04:59:19.233Z,11.40
2022-10-08T05:01:45.811Z,11.40
2022-10-08T05:04:12.301Z,10.60
2022-10-08T05:06:38.815Z,11.50
2022-10-08T05:09:05.398Z,10.33
2022-10-08T05:11:32.220Z,11.50
2022-10-08T05:13:59.099Z,12.13
2022-10-08T05:16:25.972Z,10.37
2022-10-08T05:18:52.790Z,8.40
2022-10-08T05:21:20.571Z,12.97
2022-10-08T05:23:47.269Z,13.30
2022-10-08T05:26:15.522Z,15.87
2022-10-08T05:28:42.539Z,16.13
2022-10-08T05:31:09.157Z,15.27
2022-10-08T05:33:36.314Z,16.40
2022-10-08T05:36:07.049Z,17.63
2022-10-08T05:38:35.159Z,19.00
2022-10-08T05:41:16.159Z,18.67
2022-10-08T05:43:43.041Z,16.23
2022-10-08T05:46:10.151Z,18.90
2022-10-08T05:48:37.114Z,18.53
2022-10-08T05:51:05.235Z,19.90
2022-10-08T05:53:33.917Z,19.50
2022-10-08T05:56:03.753Z,18.63
2022-10-08T05:58:30.717Z,19.10
2022-10-08T06:01:00.797Z,19.97
2022-10-08T06:03:27.733Z,20.47
2022-10-08T06:05:54.834Z,19.07
2022-10-08T06:08:22.057Z,21.30
2022-10-08T06:10:49.955Z,19.27
2022-10-08T06:13:16.437Z,18.37
2022-10-08T06:15:42.933Z,19.67
2022-10-08T06:18:09.528Z,17.33
2022-10-08T06:20:36.590Z,18.40
2022-10-08T06:23:03.173Z,19.50
2022-10-08T06:25:29.932Z,19.03
2022-10-08T06:27:56.554Z,19.33
2022-10-08T06:30:23.084Z,18.50
2022-10-08T06:32:49.949Z,18.63
2022-10-08T06:35:16.636Z,17.53
2022-10-08T06:37:43.868Z,17.13
2022-10-08T06:40:10.440Z,18.03
2022-10-08T06:42:36.946Z,17.60
2022-10-08T06:45:03.577Z,17.23
2022-10-08T06:47:30.048Z,17.90
2022-10-08T06:49:56.550Z,19.47
2022-10-08T06:52:23.107Z,15.93
2022-10-08T06:54:50.354Z,17.40
2022-10-08T06:57:16.860Z,18.90
2022-10-08T06:59:43.384Z,20.03
2022-10-08T07:02:13.158Z,19.07
2022-10-08T07:04:39.712Z,18.00
2022-10-08T07:07:06.211Z,17.73
2022-10-08T07:09:32.733Z,18.00
2022-10-08T07:11:59.274Z,19.03
2022-10-08T07:14:25.784Z,17.97
2022-10-08T07:16:52.426Z,17.23
2022-10-08T07:19:19.164Z,16.57
2022-10-08T07:21:45.639Z,17.40
2022-10-08T07:24:12.098Z,18.10
2022-10-08T07:26:38.634Z,17.30
2022-10-08T07:29:07.629Z,19.47
2022-10-08T07:31:35.815Z,18.63
2022-10-08T07:34:03.779Z,17.70
2022-10-08T07:36:30.865Z,18.13
2022-10-08T07:39:01.767Z,18.60
2022-10-08T07:41:29.795Z,18.13
2022-10-08T07:43:59.631Z,18.70
2022-10-08T07:46:26.877Z,16.40
2022-10-08T07:48:54.883Z,17.03
2022-10-08T07:51:21.606Z,16.27
2022-10-08T07:53:48.131Z,16.17
2022-10-08T07:56:15.165Z,16.83
2022-10-08T07:58:42.287Z,16.07
2022-10-08T08:01:10.762Z,15.07
2022-10-08T08:03:37.612Z,15.20
2022-10-08T08:06:05.151Z,16.13
2022-10-08T08:08:31.657Z,17.30
2022-10-08T08:10:59.028Z,16.70
2022-10-08T08:13:25.929Z,16.50
2022-10-08T08:16:12.359Z,17.13
2022-10-08T08:18:40.532Z,15.27
2022-10-08T08:21:08.364Z,15.07
2022-10-08T08:23:36.436Z,19.07
2022-10-08T08:26:04.312Z,15.20
2022-10-08T08:28:31.064Z,14.30
2022-10-08T08:31:11.005Z,13.60
2022-10-08T08:33:37.732Z,13.77
2022-10-08T08:36:04.710Z,14.50
2022-10-08T08:38:31.512Z,14.20
2022-10-08T08:41:10.425Z,13.20
2022-10-08T08:43:39.270Z,13.30
2022-10-08T08:46:06.013Z,12.30
2022-10-08T08:48:34.940Z,14.40
2022-10-08T08:51:04.090Z,15.20
2022-10-08T08:53:31.165Z,12.33
2022-10-08T08:55:59.805Z,12.10
2022-10-08T08:58:26.388Z,11.80
2022-10-08T09:00:57.817Z,12.73
2022-10-08T09:03:34.758Z,10.47
2022-10-08T09:06:06.028Z,10.17
2022-10-08T09:08:52.785Z,9.33
2022-10-08T09:11:21.210Z,8.50
2022-10-08T09:13:50.292Z,9.27
2022-10-08T09:16:17.324Z,8.93
2022-10-08T09:18:51.114Z,9.20
2022-10-08T09:21:17.999Z,4.83
2022-10-08T09:23:44.947Z,4.93
2022-10-08T09:26:20.536Z,5.87
2022-10-08T09:28:52.241Z,6.33
2022-10-08T09:31:24.401Z,9.70
2022-10-08T09:33:55.716Z,6.73
2022-10-08T09:36:33.918Z,7.07
2022-10-08T09:39:01.211Z,5.20
2022-10-08T09:41:29.023Z,5.10
2022-10-08T09:44:10.201Z,5.90
2022-10-08T09:46:36.672Z,3.33
2022-10-08T09:49:29.874Z,3.43
2022-10-08T09:51:57.754Z,4.23
2022-10-08T09:54:26.191Z,5.90
2022-10-08T09:56:54.408Z,4.00
2022-10-08T09:59:23.674Z,4.33
2022-10-08T10:01:50.909Z,3.27
2022-10-08T10:04:31.903Z,3.00
2022-10-08T10:06:58.812Z,3.90
2022-10-08T10:09:25.367Z,4.50
2022-10-08T10:12:15.393Z,3.10
2022-10-08T10:14:53.299Z,5.17
2022-10-08T10:17:25.971Z,4.47
2022-10-08T10:19:55.522Z,4.43
2022-10-08T10:22:25.372Z,3.30
2022-10-08T10:24:54.876Z,2.80
2022-10-08T10:27:24.700Z,2.10
2022-10-08T10:29:54.391Z,2.57
2022-10-08T10:32:24.125Z,2.80
2022-10-08T10:34:56.479Z,2.97
2022-10-08T10:37:29.661Z,2.33
2022-10-08T10:40:16.612Z,3.70
2022-10-08T10:42:47.321Z,3.30
2022-10-08T10:45:14.019Z,3.57
2022-10-08T10:47:40.724Z,3.57
2022-10-08T10:50:13.041Z,3.27
2022-10-08T10:52:54.281Z,2.47
2022-10-08T10:55:26.888Z,3.07
2022-10-08T10:58:02.532Z,2.03
2022-10-08T11:00:32.104Z,2.50
2022-10-08T11:03:02.701Z,2.40
2022-10-08T11:05:32.183Z,2.77
2022-10-08T11:08:01.747Z,2.30
2022-10-08T11:10:37.321Z,3.67
2022-10-08T11:13:22.200Z,2.30
2022-10-08T11:16:04.554Z,2.27
2022-10-08T11:18:31.041Z,2.30
2022-10-08T11:21:00.674Z,2.30
2022-10-08T11:23:56.616Z,1.97
2022-10-08T11:26:25.260Z,2.67
2022-10-08T11:28:57.941Z,2.63
2022-10-08T11:31:27.498Z,2.57
2022-10-08T11:33:55.956Z,2.37
2022-10-08T11:36:23.433Z,1.90
2022-10-08T11:38:59.994Z,1.87
2022-10-08T11:41:26.511Z,1.87
2022-10-08T11:43:54.959Z,1.87
2022-10-08T11:46:32.059Z,1.13
2022-10-08T11:49:00.728Z,1.83
2022-10-08T11:51:28.978Z,1.70
2022-10-08T11:54:02.777Z,1.87
2022-10-08T11:56:29.686Z,1.63
2022-10-08T11:58:57.464Z,1.57
2022-10-08T12:01:24.574Z,1.87
2022-10-08T12:04:18.619Z,1.33
2022-10-08T12:06:46.086Z,1.70
2022-10-08T12:09:22.959Z,1.37
2022-10-08T12:11:50.791Z,1.63
2022-10-08T12:14:17.459Z,1.87
2022-10-08T12:16:47.028Z,1.83
2022-10-08T12:19:32.244Z,1.73
2022-10-08T12:21:59.490Z,1.37
2022-10-08T12:24:38.213Z,1.60
2022-10-08T12:27:24.978Z,1.53
2022-10-08T12:29:55.770Z,1.67
2022-10-08T12:32:26.832Z,2.47
2022-10-08T12:34:53.408Z,1.30
2022-10-08T12:37:32.371Z,1.93
2022-10-08T12:40:01.639Z,1.20
2022-10-08T12:42:31.254Z,1.10
2022-10-08T12:44:57.768Z,2.50
2022-10-08T12:47:24.325Z,1.93
2022-10-08T12:50:02.310Z,1.30
2022-10-08T12:52:32.898Z,1.70
2022-10-08T12:55:01.567Z,1.30
2022-10-08T12:57:30.256Z,0.90
2022-10-08T13:00:05.615Z,1.33
2022-10-08T13:02:32.270Z,1.43
2022-10-08T13:04:58.796Z,1.63
2022-10-08T13:07:28.383Z,1.40
2022-10-08T13:09:59.884Z,1.50
2022-10-08T13:12:27.414Z,1.57
2022-10-08T13:15:01.296Z,1.73
2022-10-08T13:17:31.959Z,1.57
2022-10-08T13:20:11.028Z,1.60
2022-10-08T13:22:37.677Z,2.00
2022-10-08T13:25:04.535Z,1.47
2022-10-08T13:27:32.456Z,1.30
2022-10-08T13:29:59.425Z,1.53
2022-10-08T13:32:28.652Z,1.53
2022-10-08T13:34:57.139Z,0.97
2022-10-08T13:37:40.543Z,1.00
2022-10-08T13:40:13.444Z,1.10
2022-10-08T13:43:01.170Z,1.97
2022-10-08T13:45:30.220Z,1.30
2022-10-08T13:47:57.196Z,1.10
2022-10-08T13:50:24.116Z,1.30
2022-10-08T13:52:55.585Z,1.10
2022-10-08T13:55:23.867Z,2.10
2022-10-08T13:57:50.627Z,1.63
2022-10-08T14:00:17.723Z,1.53
2022-10-08T14:02:44.281Z,1.80
2022-10-08T14:05:10.802Z,1.77
2022-10-08T14:07:37.437Z,1.03
2022-10-08T14:10:04.183Z,1.03
2022-10-08T14:12:32.564Z,1.30
2022-10-08T14:14:59.889Z,1.20
2022-10-08T14:17:26.817Z,1.43
2022-10-08T14:19:55.358Z,1.20
2022-10-08T14:22:21.903Z,1.60
2022-10-08T14:24:48.400Z,1.60
2022-10-08T14:27:15.644Z,1.30
2022-10-08T14:29:42.163Z,1.30
2022-10-08T14:32:09.477Z,1.60
2022-10-08T14:34:36.232Z,1.80
2022-10-08T14:37:03.234Z,1.30
2022-10-08T14:39:29.932Z,1.10
2022-10-08T14:41:58.498Z,1.50
2022-10-08T14:44:25.193Z,2.50
2022-10-08T14:46:54.823Z,1.43
2022-10-08T14:49:22.080Z,1.47
2022-10-08T14:51:48.676Z,1.23
2022-10-08T14:54:15.544Z,1.20
2022-10-08T14:56:43.004Z,0.83
2022-10-08T14:59:10.273Z,1.10
2022-10-08T15:01:36.966Z,1.40
2022-10-08T15:04:04.089Z,1.00
2022-10-08T15:06:30.663Z,1.03
2022-10-08T15:08:57.179Z,1.10
2022-10-08T15:11:24.160Z,2.00
2022-10-08T15:13:52.581Z,1.20
2022-10-08T15:16:19.253Z,2.27
2022-10-08T15:18:45.858Z,1.70
2022-10-08T15:21:12.552Z,2.00
2022-10-08T15:23:39.228Z,2.30
2022-10-08T15:26:06.822Z,2.00
2022-10-08T15:28:37.420Z,2.17
2022-10-08T15:31:17.701Z,2.27
2022-10-08T15:33:45.384Z,1.97
2022-10-08T15:36:32.380Z,1.70
2022-10-08T15:39:03.449Z,2.37
2022-10-08T15:41:30.843Z,1.43
2022-10-08T15:44:06.233Z,1.60
2022-10-08T15:46:32.823Z,1.60
2022-10-08T15:48:59.380Z,1.57
2022-10-08T15:51:25.951Z,2.00
2022-10-08T15:53:52.553Z,1.63
2022-10-08T15:56:19.070Z,1.90
2022-10-08T15:58:50.771Z,1.93
2022-10-08T16:01:18.893Z,2.00
2022-10-08T16:03:46.982Z,1.73
2022-10-08T16:06:15.403Z,2.57
2022-10-08T16:08:44.689Z,2.20
2022-10-08T16:11:15.475Z,1.60
2022-10-08T16:13:43.010Z,2.40
2022-10-08T16:16:14.760Z,2.50
2022-10-08T16:18:42.040Z,1.90
2022-10-08T16:21:10.379Z,2.07
2022-10-08T16:23:39.980Z,2.47
2022-10-08T16:26:07.867Z,2.30
2022-10-08T16:28:36.110Z,3.20
2022-10-08T16:31:03.417Z,2.47
2022-10-08T16:33:30.082Z,1.80
2022-10-08T16:36:01.032Z,2.00
2022-10-08T16:38:27.855Z,2.37
2022-10-08T16:40:54.567Z,3.30
2022-10-08T16:43:21.156Z,3.73
2022-10-08T16:45:47.821Z,3.37
2022-10-08T16:48:14.419Z,2.73
2022-10-08T16:50:42.271Z,3.40
2022-10-08T16:53:09.106Z,2.63
2022-10-08T16:55:36.245Z,73.60
2022-10-08T16:58:03.098Z,37.63
2022-10-08T17:00:29.661Z,7.13
2022-10-08T17:02:56.282Z,4.17
2022-10-08T17:05:22.991Z,3.60
2022-10-08T17:07:49.597Z,3.13
2022-10-08T17:10:16.324Z,6.70
2022-10-08T17:12:42.857Z,7.37
2022-10-08T17:15:09.994Z,8.03
2022-10-08T17:17:36.537Z,17.47
2022-10-08T17:20:03.293Z,27.57
2022-10-08T17:22:30.030Z,28.50
2022-10-08T17:24:56.804Z,15.93
2022-10-08T17:27:23.481Z,7.90
2022-10-08T17:29:50.241Z,6.73
2022-10-08T17:32:16.989Z,5.50
2022-10-08T17:34:43.775Z,6.97
2022-10-08T17:37:10.749Z,8.37
2022-10-08T17:39:37.311Z,7.10
2022-10-08T17:42:07.178Z,4.63
2022-10-08T17:44:34.485Z,5.93
2022-10-08T17:47:01.168Z,8.47
2022-10-08T17:49:28.470Z,14.30
2022-10-08T17:51:55.433Z,35.40
2022-10-08T17:54:22.527Z,17.80
2022-10-08T17:56:49.443Z,14.07
2022-10-08T17:59:16.901Z,15.67
2022-10-08T18:01:45.410Z,12.77
2022-10-08T18:04:13.773Z,16.37
2022-10-08T18:06:41.340Z,12.30
2022-10-08T18:09:09.033Z,13.97
2022-10-08T18:11:36.384Z,13.80
2022-10-08T18:14:04.302Z,14.63
2022-10-08T18:16:31.250Z,78.60
2022-10-08T18:18:57.805Z,66.73
2022-10-08T18:21:25.040Z,25.10
2022-10-08T18:23:51.830Z,15.90
2022-10-08T18:26:23.338Z,12.03
2022-10-08T18:28:51.283Z,8.63
2022-10-08T18:31:18.411Z,7.70
2022-10-08T18:33:45.784Z,6.00
2022-10-08T18:36:16.715Z,5.93
2022-10-08T18:38:44.643Z,5.57
2022-10-08T18:41:15.913Z,4.47
2022-10-08T18:43:42.952Z,5.40
2022-10-08T18:46:09.814Z,5.80
2022-10-08T18:48:36.637Z,5.80
2022-10-08T18:51:07.281Z,6.67
2022-10-08T18:53:34.780Z,7.80
2022-10-08T18:56:01.673Z,5.00
2022-10-08T18:58:28.345Z,5.70
2022-10-08T19:00:56.490Z,4.23
2022-10-08T19:03:23.838Z,3.63
2022-10-08T19:05:51.120Z,3.70
2022-10-08T19:08:17.788Z,4.30
2022-10-08T19:10:44.881Z,5.93
2022-10-08T19:13:11.625Z,3.97
2022-10-08T19:15:39.100Z,4.40
2022-10-08T19:18:06.628Z,3.40
2022-10-08T19:20:33.990Z,3.83
2022-10-08T19:23:00.625Z,3.30
2022-10-08T19:25:27.385Z,4.47
2022-10-08T19:27:54.120Z,5.50
2022-10-08T19:30:24.881Z,6.43
2022-10-08T19:32:53.249Z,5.47
2022-10-08T19:35:19.799Z,5.73
2022-10-08T19:37:46.363Z,6.00
2022-10-08T19:40:12.947Z,4.37
2022-10-08T19:42:39.693Z,4.27
2022-10-08T19:45:06.534Z,3.83
2022-10-08T19:47:33.408Z,4.60
2022-10-08T19:50:00.100Z,4.87
2022-10-08T19:52:26.635Z,5.10
2022-10-08T19:54:53.236Z,5.50
2022-10-08T19:57:19.928Z,5.60
2022-10-08T19:59:46.481Z,5.80
2022-10-08T20:02:13.098Z,7.33
2022-10-08T20:04:39.711Z,6.70
2022-10-08T20:07:06.500Z,8.13
2022-10-08T20:09:36.347Z,8.00
2022-10-08T20:12:03.511Z,8.83
2022-10-08T20:14:30.208Z,9.40
2022-10-08T20:16:56.853Z,11.50
2022-10-08T20:19:23.442Z,9.90
2022-10-08T20:21:50.843Z,10.50
2022-10-08T20:24:18.254Z,9.07
2022-10-08T20:26:45.050Z,7.97
2022-10-08T20:29:16.856Z,8.00
2022-10-08T20:31:45.168Z,7.20
2022-10-08T20:34:19.164Z,8.03
2022-10-08T20:36:46.265Z,13.00
2022-10-08T20:39:13.279Z,11.17
2022-10-08T20:41:40.344Z,14.27
2022-10-08T20:44:07.734Z,11.37
2022-10-08T20:46:34.988Z,8.53
2022-10-08T20:49:02.017Z,8.30
2022-10-08T20:51:29.056Z,7.40
2022-10-08T20:53:56.689Z,7.40
2022-10-08T20:56:23.782Z,7.37
2022-10-08T20:58:50.679Z,7.67
2022-10-08T21:01:21.713Z,7.30
2022-10-08T21:03:48.358Z,7.67
2022-10-08T21:06:16.686Z,7.83
2022-10-08T21:08:45.647Z,7.73
2022-10-08T21:11:16.294Z,7.47
2022-10-08T21:13:43.208Z,8.37
2022-10-08T21:16:14.568Z,8.90
2022-10-08T21:18:41.690Z,9.40
2022-10-08T21:21:11.427Z,12.97
2022-10-08T21:23:38.400Z,11.30
2022-10-08T21:26:15.677Z,51.90
2022-10-08T21:28:43.443Z,16.43
2022-10-08T21:31:10.769Z,47.77
2022-10-08T21:33:37.952Z,36.23
2022-10-08T21:36:05.357Z,11.80
2022-10-08T21:38:32.312Z,11.47
2022-10-08T21:41:00.095Z,11.13
2022-10-08T21:43:29.060Z,12.07
2022-10-08T21:45:56.672Z,11.80
2022-10-08T21:48:24.113Z,11.70
2022-10-08T21:51:10.578Z,11.50
2022-10-08T21:53:38.673Z,11.47
2022-10-08T21:56:07.471Z,11.50
2022-10-08T21:58:53.368Z,13.50
2022-10-08T22:01:19.872Z,12.17
2022-10-08T22:03:46.671Z,11.73
2022-10-08T22:06:13.210Z,11.30
2022-10-08T22:08:39.904Z,11.40
2022-10-08T22:11:07.035Z,15.70
2022-10-08T22:13:33.651Z,11.13
2022-10-08T22:16:01.437Z,13.60
2022-10-08T22:18:29.140Z,13.43
2022-10-08T22:20:56.580Z,13.00
2022-10-08T22:23:23.479Z,16.73
2022-10-08T22:25:54.063Z,14.07
2022-10-08T22:28:21.202Z,11.10
2022-10-08T22:30:47.954Z,13.60
2022-10-08T22:33:14.758Z,12.20
2022-10-08T22:35:41.591Z,11.20
2022-10-08T22:38:08.108Z,12.80
2022-10-08T22:40:34.726Z,11.63
2022-10-08T22:43:01.262Z,13.20
2022-10-08T22:45:27.950Z,12.63
2022-10-08T22:47:54.571Z,12.50
2022-10-08T22:50:21.386Z,12.90
2022-10-08T22:52:49.113Z,14.63
2022-10-08T22:55:20.784Z,13.60
2022-10-08T22:57:47.513Z,13.40
2022-10-08T23:00:14.383Z,15.90
2022-10-08T23:02:40.924Z,14.70
2022-10-08T23:05:07.786Z,16.23
2022-10-08T23:07:34.276Z,15.23
2022-10-08T23:10:00.754Z,15.00
2022-10-08T23:12:27.461Z,14.17
2022-10-08T23:14:55.015Z,15.53
2022-10-08T23:17:21.625Z,14.40
2022-10-08T23:19:48.126Z,14.50
2022-10-08T23:22:14.802Z,14.70
2022-10-08T23:24:41.487Z,14.47
2022-10-08T23:27:09.710Z,14.27
2022-10-08T23:29:36.431Z,12.67
2022-10-08T23:32:03.378Z,12.43
2022-10-08T23:34:30.016Z,11.23
2022-10-08T23:36:56.522Z,12.70
2022-10-08T23:39:23.143Z,12.40
2022-10-08T23:41:49.702Z,12.50
2022-10-08T23:44:16.424Z,14.63
2022-10-08T23:46:43.079Z,12.10
2022-10-08T23:49:09.566Z,12.30
2022-10-08T23:51:36.124Z,14.10
2022-10-08T23:54:03.075Z,13.33
2022-10-08T23:56:29.785Z,15.40
2022-10-08T23:58:56.696Z,14.47
